sensor_id;sensor_type;location;lat;lon;timestamp;noise_LAeq;noise_LA_min;noise_LA_max;noise_LA01;noise_LA95
73663;Laerm;61956;52.540;13.382;2023-06-04T00:01:33;64.33;58.63;67.07;;
73663;Laerm;61956;52.540;13.382;2023-06-04T00:04:02;64.26;58.37;67.26;;
73663;Laerm;61956;52.540;13.382;2023-06-04T00:06:34;64.41;58.57;67.36;;
73663;Laerm;61956;52.540;13.382;2023-06-04T00:09:03;64.42;58.37;67.19;;
73663;Laerm;61956;52.540;13.382;2023-06-04T00:11:32;64.29;58.74;67.20;;
73663;Laerm;61956;52.540;13.382;2023-06-04T00:14:03;64.47;58.95;67.60;;
73663;Laerm;61956;52.540;13.382;2023-06-04T00:16:32;64.39;58.36;67.51;;
73663;Laerm;61956;52.540;13.382;2023-06-04T00:19:01;64.69;58.22;67.35;;
73663;Laerm;61956;52.540;13.382;2023-06-04T00:21:33;64.38;59.16;67.29;;
73663;Laerm;61956;52.540;13.382;2023-06-04T00:24:03;64.19;59.24;67.86;;
73663;Laerm;61956;52.540;13.382;2023-06-04T00:26:33;64.82;58.27;67.69;;
73663;Laerm;61956;52.540;13.382;2023-06-04T00:29:02;64.91;57.82;67.61;;
73663;Laerm;61956;52.540;13.382;2023-06-04T00:31:32;64.88;60.06;67.88;;
73663;Laerm;61956;52.540;13.382;2023-06-04T00:34:03;64.70;59.73;67.62;;
73663;Laerm;61956;52.540;13.382;2023-06-04T00:36:35;64.81;60.25;67.38;;
73663;Laerm;61956;52.540;13.382;2023-06-04T00:39:04;64.97;60.03;68.09;;
73663;Laerm;61956;52.540;13.382;2023-06-04T00:41:34;65.05;59.98;68.09;;
73663;Laerm;61956;52.540;13.382;2023-06-04T00:44:03;65.05;60.07;68.05;;
73663;Laerm;61956;52.540;13.382;2023-06-04T00:46:35;65.17;60.25;67.72;;
73663;Laerm;61956;52.540;13.382;2023-06-04T00:49:06;65.18;60.19;67.75;;
73663;Laerm;61956;52.540;13.382;2023-06-04T00:51:38;65.06;61.39;67.94;;
73663;Laerm;61956;52.540;13.382;2023-06-04T00:54:08;65.07;61.10;68.04;;
73663;Laerm;61956;52.540;13.382;2023-06-04T00:56:41;64.98;61.33;67.88;;
73663;Laerm;61956;52.540;13.382;2023-06-04T00:59:11;65.30;60.85;68.00;;
73663;Laerm;61956;52.540;13.382;2023-06-04T01:01:55;65.23;59.84;68.14;;
73663;Laerm;61956;52.540;13.382;2023-06-04T01:04:32;65.11;61.25;68.36;;
73663;Laerm;61956;52.540;13.382;2023-06-04T01:07:09;65.34;60.96;67.92;;
73663;Laerm;61956;52.540;13.382;2023-06-04T01:09:39;65.40;61.30;68.19;;
73663;Laerm;61956;52.540;13.382;2023-06-04T01:12:10;65.36;61.15;68.09;;
73663;Laerm;61956;52.540;13.382;2023-06-04T01:14:40;65.31;61.50;68.47;;
73663;Laerm;61956;52.540;13.382;2023-06-04T01:17:17;65.39;60.57;68.04;;
73663;Laerm;61956;52.540;13.382;2023-06-04T01:20:06;64.20;60.47;67.64;;
73663;Laerm;61956;52.540;13.382;2023-06-04T01:23:00;65.25;61.13;67.98;;
73663;Laerm;61956;52.540;13.382;2023-06-04T01:25:37;65.47;61.18;68.12;;
73663;Laerm;61956;52.540;13.382;2023-06-04T01:28:10;65.27;60.83;67.93;;
73663;Laerm;61956;52.540;13.382;2023-06-04T01:30:44;65.29;61.58;67.75;;
73663;Laerm;61956;52.540;13.382;2023-06-04T01:33:18;65.47;61.45;68.71;;
73663;Laerm;61956;52.540;13.382;2023-06-04T01:35:47;65.57;62.06;68.35;;
73663;Laerm;61956;52.540;13.382;2023-06-04T01:38:19;65.53;60.76;68.36;;
73663;Laerm;61956;52.540;13.382;2023-06-04T01:40:49;65.43;60.32;68.00;;
73663;Laerm;61956;52.540;13.382;2023-06-04T01:43:22;65.50;61.48;68.12;;
73663;Laerm;61956;52.540;13.382;2023-06-04T01:45:52;65.48;61.63;67.82;;
73663;Laerm;61956;52.540;13.382;2023-06-04T01:48:22;65.21;61.62;67.86;;
73663;Laerm;61956;52.540;13.382;2023-06-04T01:50:52;65.56;61.15;68.45;;
73663;Laerm;61956;52.540;13.382;2023-06-04T01:53:24;65.59;61.60;67.92;;
73663;Laerm;61956;52.540;13.382;2023-06-04T01:55:53;65.57;61.28;68.40;;
73663;Laerm;61956;52.540;13.382;2023-06-04T01:58:23;65.28;61.48;68.07;;
73663;Laerm;61956;52.540;13.382;2023-06-04T02:00:53;65.57;61.56;68.14;;
73663;Laerm;61956;52.540;13.382;2023-06-04T02:03:26;65.54;61.96;67.96;;
73663;Laerm;61956;52.540;13.382;2023-06-04T02:05:58;65.40;61.92;68.01;;
73663;Laerm;61956;52.540;13.382;2023-06-04T02:08:30;65.54;62.13;68.13;;
73663;Laerm;61956;52.540;13.382;2023-06-04T02:11:00;65.55;61.58;68.00;;
73663;Laerm;61956;52.540;13.382;2023-06-04T02:13:29;65.61;62.35;68.22;;
73663;Laerm;61956;52.540;13.382;2023-06-04T02:15:58;65.64;61.49;68.13;;
73663;Laerm;61956;52.540;13.382;2023-06-04T02:18:27;65.61;61.38;68.25;;
73663;Laerm;61956;52.540;13.382;2023-06-04T02:20:57;65.57;61.82;68.29;;
73663;Laerm;61956;52.540;13.382;2023-06-04T02:23:27;65.53;60.96;68.40;;
73663;Laerm;61956;52.540;13.382;2023-06-04T02:25:58;65.67;61.65;68.24;;
73663;Laerm;61956;52.540;13.382;2023-06-04T02:28:28;65.63;61.24;68.21;;
73663;Laerm;61956;52.540;13.382;2023-06-04T02:30:57;65.39;60.58;68.29;;
73663;Laerm;61956;52.540;13.382;2023-06-04T02:33:27;65.66;60.91;68.19;;
73663;Laerm;61956;52.540;13.382;2023-06-04T02:35:56;65.66;61.26;68.45;;
73663;Laerm;61956;52.540;13.382;2023-06-04T02:38:26;65.64;61.71;68.30;;
73663;Laerm;61956;52.540;13.382;2023-06-04T02:40:58;65.59;61.88;68.33;;
73663;Laerm;61956;52.540;13.382;2023-06-04T02:43:27;65.70;61.87;68.51;;
73663;Laerm;61956;52.540;13.382;2023-06-04T02:45:56;65.72;61.22;68.43;;
73663;Laerm;61956;52.540;13.382;2023-06-04T02:48:26;65.60;61.67;68.66;;
73663;Laerm;61956;52.540;13.382;2023-06-04T02:50:55;65.60;61.25;68.51;;
73663;Laerm;61956;52.540;13.382;2023-06-04T02:53:24;65.39;60.27;68.10;;
73663;Laerm;61956;52.540;13.382;2023-06-04T02:55:53;65.63;61.89;68.36;;
73663;Laerm;61956;52.540;13.382;2023-06-04T02:58:27;65.61;61.30;68.22;;
73663;Laerm;61956;52.540;13.382;2023-06-04T03:00:57;65.64;61.49;68.18;;
73663;Laerm;61956;52.540;13.382;2023-06-04T03:03:27;65.70;60.81;69.39;;
73663;Laerm;61956;52.540;13.382;2023-06-04T03:05:57;65.57;61.40;68.50;;
73663;Laerm;61956;52.540;13.382;2023-06-04T03:08:27;65.46;61.61;68.14;;
73663;Laerm;61956;52.540;13.382;2023-06-04T03:10:57;65.65;61.77;69.18;;
73663;Laerm;61956;52.540;13.382;2023-06-04T03:13:29;65.69;62.12;68.27;;
73663;Laerm;61956;52.540;13.382;2023-06-04T03:16:01;65.71;61.81;68.28;;
73663;Laerm;61956;52.540;13.382;2023-06-04T03:18:35;65.73;61.68;68.19;;
73663;Laerm;61956;52.540;13.382;2023-06-04T03:21:06;65.62;61.47;68.27;;
73663;Laerm;61956;52.540;13.382;2023-06-04T03:23:39;65.64;62.12;68.32;;
73663;Laerm;61956;52.540;13.382;2023-06-04T03:26:08;65.39;61.61;68.01;;
73663;Laerm;61956;52.540;13.382;2023-06-04T03:28:42;65.68;62.38;68.56;;
73663;Laerm;61956;52.540;13.382;2023-06-04T03:31:14;65.64;61.09;68.53;;
73663;Laerm;61956;52.540;13.382;2023-06-04T03:33:44;65.66;61.32;68.22;;
73663;Laerm;61956;52.540;13.382;2023-06-04T03:38:45;65.49;61.01;68.70;;
73663;Laerm;61956;52.540;13.382;2023-06-04T03:41:15;65.47;61.18;67.93;;
73663;Laerm;61956;52.540;13.382;2023-06-04T03:43:47;65.49;61.32;68.22;;
73663;Laerm;61956;52.540;13.382;2023-06-04T03:46:16;65.35;61.25;68.43;;
73663;Laerm;61956;52.540;13.382;2023-06-04T03:48:46;65.60;60.76;69.45;;
73663;Laerm;61956;52.540;13.382;2023-06-04T03:51:16;65.58;61.42;68.14;;
73663;Laerm;61956;52.540;13.382;2023-06-04T03:53:46;65.55;61.28;68.04;;
73663;Laerm;61956;52.540;13.382;2023-06-04T03:56:15;65.31;61.20;68.12;;
73663;Laerm;61956;52.540;13.382;2023-06-04T03:58:47;65.47;60.44;68.25;;
73663;Laerm;61956;52.540;13.382;2023-06-04T04:01:17;65.58;61.57;68.20;;
73663;Laerm;61956;52.540;13.382;2023-06-04T04:03:47;65.61;61.07;68.19;;
73663;Laerm;61956;52.540;13.382;2023-06-04T04:06:17;65.62;61.71;68.23;;
73663;Laerm;61956;52.540;13.382;2023-06-04T04:08:47;65.61;61.30;68.18;;
73663;Laerm;61956;52.540;13.382;2023-06-04T04:11:19;65.60;59.87;68.36;;
73663;Laerm;61956;52.540;13.382;2023-06-04T04:13:51;65.56;61.25;68.31;;
73663;Laerm;61956;52.540;13.382;2023-06-04T04:16:22;65.58;61.29;68.88;;
73663;Laerm;61956;52.540;13.382;2023-06-04T04:18:54;65.56;60.85;68.26;;
73663;Laerm;61956;52.540;13.382;2023-06-04T04:21:23;65.40;60.93;67.90;;
73663;Laerm;61956;52.540;13.382;2023-06-04T04:23:53;65.43;60.57;69.75;;
73663;Laerm;61956;52.540;13.382;2023-06-04T04:26:23;65.43;60.81;72.06;;
73663;Laerm;61956;52.540;13.382;2023-06-04T04:28:57;65.14;60.51;67.91;;
73663;Laerm;61956;52.540;13.382;2023-06-04T04:34:02;60.75;57.52;72.54;;
73663;Laerm;61956;52.540;13.382;2023-06-04T04:36:38;60.55;57.29;64.18;;
73663;Laerm;61956;52.540;13.382;2023-06-04T04:39:08;60.54;57.33;69.84;;
73663;Laerm;61956;52.540;13.382;2023-06-04T04:41:38;60.50;56.97;64.46;;
73663;Laerm;61956;52.540;13.382;2023-06-04T04:44:11;60.49;57.26;63.86;;
73663;Laerm;61956;52.540;13.382;2023-06-04T04:46:40;60.49;57.07;64.13;;
73663;Laerm;61956;52.540;13.382;2023-06-04T04:49:10;60.50;57.35;65.60;;
73663;Laerm;61956;52.540;13.382;2023-06-04T04:51:39;60.52;57.40;70.84;;
73663;Laerm;61956;52.540;13.382;2023-06-04T04:54:09;60.60;57.38;69.30;;
73663;Laerm;61956;52.540;13.382;2023-06-04T04:56:39;60.45;57.35;63.79;;
73663;Laerm;61956;52.540;13.382;2023-06-04T04:59:11;60.41;57.42;63.95;;
73663;Laerm;61956;52.540;13.382;2023-06-04T05:01:40;60.41;57.23;63.92;;
73663;Laerm;61956;52.540;13.382;2023-06-04T05:04:09;60.39;57.30;64.08;;
73663;Laerm;61956;52.540;13.382;2023-06-04T05:06:40;60.40;57.37;64.02;;
73663;Laerm;61956;52.540;13.382;2023-06-04T05:09:10;60.42;57.32;63.95;;
73663;Laerm;61956;52.540;13.382;2023-06-04T05:11:39;60.40;57.34;63.97;;
73663;Laerm;61956;52.540;13.382;2023-06-04T05:14:11;60.43;57.28;65.75;;
73663;Laerm;61956;52.540;13.382;2023-06-04T05:16:41;60.42;57.12;64.34;;
73663;Laerm;61956;52.540;13.382;2023-06-04T05:19:12;60.45;57.31;64.01;;
73663;Laerm;61956;52.540;13.382;2023-06-04T05:21:42;60.42;57.16;64.06;;
73663;Laerm;61956;52.540;13.382;2023-06-04T05:24:15;60.39;57.37;64.45;;
73663;Laerm;61956;52.540;13.382;2023-06-04T05:26:44;60.43;57.03;64.02;;
73663;Laerm;61956;52.540;13.382;2023-06-04T05:29:20;60.46;57.14;64.09;;
73663;Laerm;61956;52.540;13.382;2023-06-04T05:31:50;60.48;57.33;64.20;;
73663;Laerm;61956;52.540;13.382;2023-06-04T05:34:21;60.44;57.22;64.40;;
73663;Laerm;61956;52.540;13.382;2023-06-04T05:36:53;60.49;57.30;64.37;;
73663;Laerm;61956;52.540;13.382;2023-06-04T05:39:24;60.61;57.13;65.87;;
73663;Laerm;61956;52.540;13.382;2023-06-04T05:42:03;60.68;57.36;72.83;;
73663;Laerm;61956;52.540;13.382;2023-06-04T05:44:35;60.59;57.29;66.99;;
73663;Laerm;61956;52.540;13.382;2023-06-04T05:47:08;60.61;57.45;64.35;;
73663;Laerm;61956;52.540;13.382;2023-06-04T05:49:37;60.63;57.39;71.31;;
73663;Laerm;61956;52.540;13.382;2023-06-04T05:52:06;60.57;57.29;64.45;;
73663;Laerm;61956;52.540;13.382;2023-06-04T05:54:36;60.65;57.44;71.81;;
73663;Laerm;61956;52.540;13.382;2023-06-04T05:57:07;60.61;57.30;65.28;;
73663;Laerm;61956;52.540;13.382;2023-06-04T05:59:39;60.65;57.25;74.23;;
73663;Laerm;61956;52.540;13.382;2023-06-04T06:02:11;60.67;57.34;64.50;;
73663;Laerm;61956;52.540;13.382;2023-06-04T06:04:42;60.65;57.48;65.03;;
73663;Laerm;61956;52.540;13.382;2023-06-04T06:07:14;60.66;57.44;64.04;;
73663;Laerm;61956;52.540;13.382;2023-06-04T06:09:43;60.72;57.62;69.90;;
73663;Laerm;61956;52.540;13.382;2023-06-04T06:12:12;60.62;57.59;64.14;;
73663;Laerm;61956;52.540;13.382;2023-06-04T06:14:45;60.66;57.43;64.39;;
73663;Laerm;61956;52.540;13.382;2023-06-04T06:17:15;60.61;57.69;64.33;;
73663;Laerm;61956;52.540;13.382;2023-06-04T06:19:44;60.59;57.53;64.28;;
73663;Laerm;61956;52.540;13.382;2023-06-04T06:22:13;60.58;57.33;64.36;;
73663;Laerm;61956;52.540;13.382;2023-06-04T06:24:43;60.56;57.55;63.97;;
73663;Laerm;61956;52.540;13.382;2023-06-04T06:27:15;60.56;57.20;64.77;;
73663;Laerm;61956;52.540;13.382;2023-06-04T06:29:47;60.51;57.47;63.79;;
73663;Laerm;61956;52.540;13.382;2023-06-04T06:32:17;60.51;57.28;63.95;;
73663;Laerm;61956;52.540;13.382;2023-06-04T06:34:46;60.50;57.48;66.10;;
73663;Laerm;61956;52.540;13.382;2023-06-04T06:37:15;60.53;57.42;68.88;;
73663;Laerm;61956;52.540;13.382;2023-06-04T06:39:44;60.50;57.21;64.43;;
73663;Laerm;61956;52.540;13.382;2023-06-04T06:42:14;60.49;57.43;64.34;;
73663;Laerm;61956;52.540;13.382;2023-06-04T06:44:48;60.44;57.40;64.06;;
73663;Laerm;61956;52.540;13.382;2023-06-04T06:47:17;60.41;57.14;63.78;;
73663;Laerm;61956;52.540;13.382;2023-06-04T06:49:46;60.31;57.29;64.55;;
73663;Laerm;61956;52.540;13.382;2023-06-04T06:52:15;60.11;57.41;63.70;;
73663;Laerm;61956;52.540;13.382;2023-06-04T06:54:46;60.02;57.39;65.53;;
73663;Laerm;61956;52.540;13.382;2023-06-04T06:57:19;60.01;57.37;63.13;;
73663;Laerm;61956;52.540;13.382;2023-06-04T06:59:50;60.04;57.53;62.90;;
73663;Laerm;61956;52.540;13.382;2023-06-04T07:02:20;60.09;57.51;63.27;;
73663;Laerm;61956;52.540;13.382;2023-06-04T07:04:49;60.13;57.56;70.89;;
73663;Laerm;61956;52.540;13.382;2023-06-04T07:07:19;60.14;57.68;64.35;;
73663;Laerm;61956;52.540;13.382;2023-06-04T07:09:48;60.09;57.62;63.37;;
73663;Laerm;61956;52.540;13.382;2023-06-04T07:12:17;60.13;57.66;63.02;;
73663;Laerm;61956;52.540;13.382;2023-06-04T07:14:50;60.49;57.75;68.05;;
73663;Laerm;61956;52.540;13.382;2023-06-04T07:17:19;60.11;57.41;63.08;;
73663;Laerm;61956;52.540;13.382;2023-06-04T07:19:48;60.11;57.55;65.26;;
73663;Laerm;61956;52.540;13.382;2023-06-04T07:22:18;60.07;57.62;65.21;;
73663;Laerm;61956;52.540;13.382;2023-06-04T07:24:47;60.10;57.75;69.28;;
73663;Laerm;61956;52.540;13.382;2023-06-04T07:27:16;60.13;57.75;69.96;;
73663;Laerm;61956;52.540;13.382;2023-06-04T07:29:45;60.06;57.32;68.55;;
73663;Laerm;61956;52.540;13.382;2023-06-04T07:32:17;60.07;57.74;62.85;;
73663;Laerm;61956;52.540;13.382;2023-06-04T07:34:47;60.11;57.79;63.02;;
73663;Laerm;61956;52.540;13.382;2023-06-04T07:37:16;60.14;57.75;72.26;;
73663;Laerm;61956;52.540;13.382;2023-06-04T07:39:46;60.07;57.61;63.18;;
73663;Laerm;61956;52.540;13.382;2023-06-04T07:42:15;60.09;57.83;62.97;;
73663;Laerm;61956;52.540;13.382;2023-06-04T07:44:44;60.08;57.84;63.20;;
73663;Laerm;61956;52.540;13.382;2023-06-04T07:47:14;60.12;57.68;66.63;;
73663;Laerm;61956;52.540;13.382;2023-06-04T07:49:45;60.13;57.75;67.87;;
73663;Laerm;61956;52.540;13.382;2023-06-04T07:52:15;60.16;57.75;63.20;;
73663;Laerm;61956;52.540;13.382;2023-06-04T07:54:44;60.19;57.73;63.37;;
73663;Laerm;61956;52.540;13.382;2023-06-04T07:57:15;60.09;57.79;65.07;;
73663;Laerm;61956;52.540;13.382;2023-06-04T07:59:45;60.10;57.76;63.16;;
73663;Laerm;61956;52.540;13.382;2023-06-04T08:02:14;60.11;57.73;62.67;;
73663;Laerm;61956;52.540;13.382;2023-06-04T08:04:47;60.15;57.65;69.11;;
73663;Laerm;61956;52.540;13.382;2023-06-04T08:07:17;60.17;57.72;67.20;;
73663;Laerm;61956;52.540;13.382;2023-06-04T08:09:46;60.14;57.76;67.36;;
73663;Laerm;61956;52.540;13.382;2023-06-04T08:12:16;60.13;57.58;68.75;;
73663;Laerm;61956;52.540;13.382;2023-06-04T08:14:45;60.11;57.68;63.09;;
73663;Laerm;61956;52.540;13.382;2023-06-04T08:17:16;60.18;57.76;64.86;;
73663;Laerm;61956;52.540;13.382;2023-06-04T08:19:48;60.12;57.80;63.07;;
73663;Laerm;61956;52.540;13.382;2023-06-04T08:22:18;60.18;57.62;63.76;;
73663;Laerm;61956;52.540;13.382;2023-06-04T08:24:59;60.18;57.57;65.51;;
73663;Laerm;61956;52.540;13.382;2023-06-04T08:27:49;60.14;57.53;62.98;;
73663;Laerm;61956;52.540;13.382;2023-06-04T08:30:39;60.16;57.71;63.98;;
73663;Laerm;61956;52.540;13.382;2023-06-04T08:33:21;60.34;57.35;69.33;;
73663;Laerm;61956;52.540;13.382;2023-06-04T08:36:12;60.16;57.65;63.09;;
73663;Laerm;61956;52.540;13.382;2023-06-04T08:38:42;60.18;57.49;63.38;;
73663;Laerm;61956;52.540;13.382;2023-06-04T08:41:16;60.86;57.67;69.31;;
73663;Laerm;61956;52.540;13.382;2023-06-04T08:43:48;60.18;57.70;63.47;;
73663;Laerm;61956;52.540;13.382;2023-06-04T08:46:21;60.16;57.70;67.88;;
73663;Laerm;61956;52.540;13.382;2023-06-04T08:48:51;60.12;57.46;65.16;;
73663;Laerm;61956;52.540;13.382;2023-06-04T08:51:24;60.10;57.62;66.27;;
73663;Laerm;61956;52.540;13.382;2023-06-04T08:53:54;60.08;57.53;66.32;;
73663;Laerm;61956;52.540;13.382;2023-06-04T08:56:24;60.31;57.63;65.40;;
73663;Laerm;61956;52.540;13.382;2023-06-04T08:59:00;60.06;57.34;63.44;;
73663;Laerm;61956;52.540;13.382;2023-06-04T09:01:31;60.05;57.37;63.06;;
73663;Laerm;61956;52.540;13.382;2023-06-04T09:04:05;60.09;57.58;63.68;;
73663;Laerm;61956;52.540;13.382;2023-06-04T09:06:39;60.07;57.46;71.00;;
73663;Laerm;61956;52.540;13.382;2023-06-04T09:09:11;60.10;57.54;63.25;;
73663;Laerm;61956;52.540;13.382;2023-06-04T09:11:50;60.11;57.44;64.94;;
73663;Laerm;61956;52.540;13.382;2023-06-04T09:14:20;60.07;57.47;63.61;;
73663;Laerm;61956;52.540;13.382;2023-06-04T09:16:51;60.11;57.50;66.65;;
73663;Laerm;61956;52.540;13.382;2023-06-04T09:19:21;60.13;57.49;64.72;;
73663;Laerm;61956;52.540;13.382;2023-06-04T09:21:56;60.22;57.57;64.55;;
73663;Laerm;61956;52.540;13.382;2023-06-04T09:24:42;60.29;57.42;65.90;;
73663;Laerm;61956;52.540;13.382;2023-06-04T09:27:17;60.14;57.57;63.27;;
73663;Laerm;61956;52.540;13.382;2023-06-04T09:29:53;61.29;57.32;73.77;;
73663;Laerm;61956;52.540;13.382;2023-06-04T09:32:23;60.12;57.42;64.36;;
73663;Laerm;61956;52.540;13.382;2023-06-04T09:34:53;60.07;57.22;63.06;;
73663;Laerm;61956;52.540;13.382;2023-06-04T09:37:26;60.06;57.43;63.68;;
73663;Laerm;61956;52.540;13.382;2023-06-04T09:39:55;61.11;57.44;69.50;;
73663;Laerm;61956;52.540;13.382;2023-06-04T09:42:25;60.06;57.45;63.52;;
73663;Laerm;61956;52.540;13.382;2023-06-04T09:44:54;60.15;57.61;69.15;;
73663;Laerm;61956;52.540;13.382;2023-06-04T09:47:25;60.13;57.43;66.67;;
73663;Laerm;61956;52.540;13.382;2023-06-04T09:49:57;60.17;57.44;64.42;;
73663;Laerm;61956;52.540;13.382;2023-06-04T09:52:35;60.22;57.62;69.20;;
73663;Laerm;61956;52.540;13.382;2023-06-04T09:55:17;60.19;57.43;63.77;;
73663;Laerm;61956;52.540;13.382;2023-06-04T09:57:50;60.21;57.54;63.64;;
73663;Laerm;61956;52.540;13.382;2023-06-04T10:00:23;60.23;57.46;64.76;;
73663;Laerm;61956;52.540;13.382;2023-06-04T10:02:58;60.19;57.61;64.25;;
73663;Laerm;61956;52.540;13.382;2023-06-04T10:05:32;60.25;57.24;67.75;;
73663;Laerm;61956;52.540;13.382;2023-06-04T10:08:04;60.29;57.46;64.86;;
73663;Laerm;61956;52.540;13.382;2023-06-04T10:10:36;60.16;57.48;63.18;;
73663;Laerm;61956;52.540;13.382;2023-06-04T10:13:15;60.11;57.40;64.27;;
73663;Laerm;61956;52.540;13.382;2023-06-04T10:15:47;60.16;57.55;69.02;;
73663;Laerm;61956;52.540;13.382;2023-06-04T10:18:16;60.15;57.28;64.35;;
73663;Laerm;61956;52.540;13.382;2023-06-04T10:20:52;60.09;57.43;63.07;;
73663;Laerm;61956;52.540;13.382;2023-06-04T10:23:25;60.17;57.68;63.25;;
73663;Laerm;61956;52.540;13.382;2023-06-04T10:25:56;60.16;57.53;63.36;;
73663;Laerm;61956;52.540;13.382;2023-06-04T10:28:26;60.55;57.67;63.63;;
73663;Laerm;61956;52.540;13.382;2023-06-04T10:30:55;61.14;57.65;71.03;;
73663;Laerm;61956;52.540;13.382;2023-06-04T10:33:25;60.29;57.62;64.24;;
73663;Laerm;61956;52.540;13.382;2023-06-04T10:35:55;60.20;57.60;63.21;;
73663;Laerm;61956;52.540;13.382;2023-06-04T10:38:28;60.26;57.59;68.73;;
73663;Laerm;61956;52.540;13.382;2023-06-04T10:40:57;60.36;57.45;67.48;;
73663;Laerm;61956;52.540;13.382;2023-06-04T10:43:30;60.25;57.15;66.13;;
73663;Laerm;61956;52.540;13.382;2023-06-04T10:46:11;60.36;57.21;68.06;;
73663;Laerm;61956;52.540;13.382;2023-06-04T10:48:49;60.20;57.38;67.50;;
73663;Laerm;61956;52.540;13.382;2023-06-04T10:51:29;60.16;57.26;63.12;;
73663;Laerm;61956;52.540;13.382;2023-06-04T10:54:03;60.13;57.37;63.58;;
73663;Laerm;61956;52.540;13.382;2023-06-04T10:56:36;60.13;57.51;69.75;;
73663;Laerm;61956;52.540;13.382;2023-06-04T10:59:17;60.12;57.54;63.34;;
73663;Laerm;61956;52.540;13.382;2023-06-04T11:01:47;60.12;57.35;63.65;;
73663;Laerm;61956;52.540;13.382;2023-06-04T11:04:25;60.22;57.59;65.29;;
73663;Laerm;61956;52.540;13.382;2023-06-04T11:07:01;60.20;57.36;69.53;;
73663;Laerm;61956;52.540;13.382;2023-06-04T11:09:47;60.47;57.72;69.51;;
73663;Laerm;61956;52.540;13.382;2023-06-04T11:12:16;60.25;57.42;72.90;;
73663;Laerm;61956;52.540;13.382;2023-06-04T11:14:54;60.24;57.65;75.38;;
73663;Laerm;61956;52.540;13.382;2023-06-04T11:17:24;60.21;57.34;63.68;;
73663;Laerm;61956;52.540;13.382;2023-06-04T11:19:53;60.26;57.47;67.43;;
73663;Laerm;61956;52.540;13.382;2023-06-04T11:22:23;60.36;57.48;74.75;;
73663;Laerm;61956;52.540;13.382;2023-06-04T11:27:53;60.33;57.40;67.20;;
73663;Laerm;61956;52.540;13.382;2023-06-04T11:30:24;60.32;57.44;69.98;;
73663;Laerm;61956;52.540;13.382;2023-06-04T11:33:01;60.36;57.49;63.96;;
73663;Laerm;61956;52.540;13.382;2023-06-04T11:35:39;60.19;57.30;63.75;;
73663;Laerm;61956;52.540;13.382;2023-06-04T11:38:09;60.22;57.49;66.78;;
73663;Laerm;61956;52.540;13.382;2023-06-04T11:40:39;60.19;57.52;63.62;;
73663;Laerm;61956;52.540;13.382;2023-06-04T11:43:13;60.21;57.52;65.69;;
73663;Laerm;61956;52.540;13.382;2023-06-04T11:45:43;60.16;57.46;63.25;;
73663;Laerm;61956;52.540;13.382;2023-06-04T11:48:12;60.15;57.49;63.45;;
73663;Laerm;61956;52.540;13.382;2023-06-04T11:50:42;60.10;57.55;63.39;;
73663;Laerm;61956;52.540;13.382;2023-06-04T11:53:11;60.12;57.55;63.74;;
73663;Laerm;61956;52.540;13.382;2023-06-04T11:55:41;60.31;57.48;67.92;;
73663;Laerm;61956;52.540;13.382;2023-06-04T11:58:13;60.16;57.41;65.31;;
73663;Laerm;61956;52.540;13.382;2023-06-04T12:00:43;60.12;57.19;63.85;;
73663;Laerm;61956;52.540;13.382;2023-06-04T12:03:12;60.16;57.39;63.48;;
73663;Laerm;61956;52.540;13.382;2023-06-04T12:05:42;60.19;57.38;64.15;;
73663;Laerm;61956;52.540;13.382;2023-06-04T12:08:11;60.15;57.34;63.51;;
73663;Laerm;61956;52.540;13.382;2023-06-04T12:10:42;60.14;57.38;63.19;;
73663;Laerm;61956;52.540;13.382;2023-06-04T12:13:14;60.14;57.35;63.29;;
73663;Laerm;61956;52.540;13.382;2023-06-04T12:15:51;60.17;57.49;63.46;;
73663;Laerm;61956;52.540;13.382;2023-06-04T12:18:32;60.10;57.54;63.52;;
73663;Laerm;61956;52.540;13.382;2023-06-04T12:21:03;61.08;57.49;73.38;;
73663;Laerm;61956;52.540;13.382;2023-06-04T12:23:32;61.47;57.51;73.62;;
73663;Laerm;61956;52.540;13.382;2023-06-04T12:26:01;60.85;57.49;64.00;;
73663;Laerm;61956;52.540;13.382;2023-06-04T12:28:35;60.14;57.54;63.29;;
73663;Laerm;61956;52.540;13.382;2023-06-04T12:31:16;60.18;57.36;63.56;;
73663;Laerm;61956;52.540;13.382;2023-06-04T12:33:45;60.22;57.52;63.59;;
73663;Laerm;61956;52.540;13.382;2023-06-04T12:36:15;60.18;57.72;63.70;;
73663;Laerm;61956;52.540;13.382;2023-06-04T12:38:44;60.17;57.49;66.09;;
73663;Laerm;61956;52.540;13.382;2023-06-04T12:41:13;60.20;57.60;63.60;;
73663;Laerm;61956;52.540;13.382;2023-06-04T12:43:45;60.10;57.48;63.74;;
73663;Laerm;61956;52.540;13.382;2023-06-04T12:46:14;60.14;57.00;64.98;;
73663;Laerm;61956;52.540;13.382;2023-06-04T12:48:44;60.11;57.46;63.83;;
73663;Laerm;61956;52.540;13.382;2023-06-04T12:51:13;60.11;57.48;62.96;;
73663;Laerm;61956;52.540;13.382;2023-06-04T12:53:42;60.10;57.26;63.28;;
73663;Laerm;61956;52.540;13.382;2023-06-04T12:56:12;60.08;57.51;63.29;;
73663;Laerm;61956;52.540;13.382;2023-06-04T12:58:45;60.12;57.62;63.57;;
73663;Laerm;61956;52.540;13.382;2023-06-04T13:01:15;60.15;57.41;63.75;;
73663;Laerm;61956;52.540;13.382;2023-06-04T13:03:44;60.12;57.59;63.16;;
73663;Laerm;61956;52.540;13.382;2023-06-04T13:06:14;60.13;57.36;63.51;;
73663;Laerm;61956;52.540;13.382;2023-06-04T13:08:43;60.17;57.55;64.31;;
73663;Laerm;61956;52.540;13.382;2023-06-04T13:11:12;60.12;57.63;63.89;;
73663;Laerm;61956;52.540;13.382;2023-06-04T13:13:41;60.11;57.46;64.35;;
73663;Laerm;61956;52.540;13.382;2023-06-04T13:16:13;60.10;57.36;63.36;;
73663;Laerm;61956;52.540;13.382;2023-06-04T13:18:43;60.12;57.40;63.28;;
73663;Laerm;61956;52.540;13.382;2023-06-04T13:21:12;60.14;57.62;63.67;;
73663;Laerm;61956;52.540;13.382;2023-06-04T13:23:41;60.16;57.55;65.96;;
73663;Laerm;61956;52.540;13.382;2023-06-04T13:26:11;60.13;57.62;63.36;;
73663;Laerm;61956;52.540;13.382;2023-06-04T13:28:40;60.10;57.51;63.31;;
73663;Laerm;61956;52.540;13.382;2023-06-04T13:31:09;60.16;57.52;69.46;;
73663;Laerm;61956;52.540;13.382;2023-06-04T13:33:41;60.21;57.54;63.95;;
73663;Laerm;61956;52.540;13.382;2023-06-04T13:36:13;60.09;57.39;63.60;;
73663;Laerm;61956;52.540;13.382;2023-06-04T13:38:43;60.09;57.50;63.69;;
73663;Laerm;61956;52.540;13.382;2023-06-04T13:41:13;60.14;57.23;69.93;;
73663;Laerm;61956;52.540;13.382;2023-06-04T13:43:42;60.11;57.61;63.87;;
73663;Laerm;61956;52.540;13.382;2023-06-04T13:46:11;60.08;57.46;63.00;;
73663;Laerm;61956;52.540;13.382;2023-06-04T13:48:44;60.12;57.38;63.21;;
73663;Laerm;61956;52.540;13.382;2023-06-04T13:51:13;60.32;57.70;66.20;;
73663;Laerm;61956;52.540;13.382;2023-06-04T13:53:43;60.15;57.33;63.21;;
73663;Laerm;61956;52.540;13.382;2023-06-04T13:56:12;60.16;57.45;63.67;;
73663;Laerm;61956;52.540;13.382;2023-06-04T13:58:41;60.12;57.46;63.57;;
73663;Laerm;61956;52.540;13.382;2023-06-04T14:01:10;60.16;57.49;63.80;;
73663;Laerm;61956;52.540;13.382;2023-06-04T14:03:39;60.13;57.64;65.85;;